createdAt,value
2022-12-11T00:01:40.783Z,50.03
2022-12-11T00:07:43.348Z,54.93
2022-12-11T00:13:45.716Z,48.67
2022-12-11T00:19:48.243Z,51.80
2022-12-11T00:25:53.700Z,171.87
2022-12-11T00:31:56.212Z,75.37
2022-12-11T00:37:58.640Z,107.87
2022-12-11T00:44:01.100Z,49.80
2022-12-11T00:50:03.593Z,47.70
2022-12-11T00:56:21.089Z,51.93
2022-12-11T01:02:25.646Z,39.93
2022-12-11T01:08:28.099Z,40.40
2022-12-11T01:14:32.519Z,41.57
2022-12-11T01:20:41.919Z,62.53
2022-12-11T01:26:46.461Z,113.30
2022-12-11T01:32:48.919Z,75.33
2022-12-11T01:38:56.400Z,79.33
2022-12-11T01:45:27.463Z,35.13
2022-12-11T01:51:34.466Z,27.87
2022-12-11T01:57:43.967Z,31.27
2022-12-11T02:03:46.400Z,29.97
2022-12-11T02:09:49.839Z,35.10
2022-12-11T02:16:16.567Z,48.67
2022-12-11T02:22:45.978Z,69.93
2022-12-11T02:28:57.232Z,30.50
2022-12-11T02:35:13.193Z,36.97
2022-12-11T02:41:16.403Z,26.27
2022-12-11T02:47:28.659Z,26.63
2022-12-11T02:53:37.394Z,21.80
2022-12-11T02:59:42.882Z,27.00
2022-12-11T03:05:48.340Z,20.87
2022-12-11T03:11:50.813Z,22.93
2022-12-11T03:18:16.344Z,31.47
2022-12-11T03:24:51.408Z,35.07
2022-12-11T03:30:58.327Z,16.53
2022-12-11T03:37:06.323Z,21.13
2022-12-11T03:43:13.518Z,28.37
2022-12-11T03:49:23.729Z,20.37
2022-12-11T03:55:28.359Z,19.70
2022-12-11T04:01:38.322Z,24.10
2022-12-11T04:07:43.696Z,20.17
2022-12-11T04:13:46.799Z,19.23
2022-12-11T04:20:07.268Z,19.50
2022-12-11T04:26:17.855Z,32.63
2022-12-11T04:32:28.791Z,16.43
2022-12-11T04:38:37.578Z,16.90
2022-12-11T04:44:48.310Z,14.87
2022-12-11T04:50:50.749Z,16.87
2022-12-11T04:56:53.219Z,19.53
2022-12-11T05:02:58.667Z,19.37
2022-12-11T05:09:01.133Z,17.30
2022-12-11T05:15:06.588Z,14.73
2022-12-11T05:21:14.064Z,13.33
2022-12-11T05:27:15.991Z,12.93
2022-12-11T05:33:21.006Z,37.27
2022-12-11T05:39:26.419Z,88.50
2022-12-11T05:45:29.004Z,55.37
2022-12-11T05:51:38.284Z,19.43
2022-12-11T05:57:42.617Z,10.53
2022-12-11T06:03:53.286Z,13.00
2022-12-11T06:09:58.949Z,13.77
2022-12-11T06:16:08.498Z,10.50
2022-12-11T06:22:10.924Z,15.13
2022-12-11T06:28:18.014Z,13.67
2022-12-11T06:34:22.790Z,13.93
2022-12-11T06:40:28.395Z,12.13
2022-12-11T06:46:31.856Z,13.30
2022-12-11T06:52:51.501Z,14.13
2022-12-11T06:58:53.859Z,15.83
2022-12-11T07:04:59.895Z,10.60
2022-12-11T07:11:18.202Z,12.77
2022-12-11T07:17:20.252Z,10.50
2022-12-11T07:23:29.744Z,9.97
2022-12-11T07:30:01.497Z,9.33
2022-12-11T07:36:05.854Z,11.43
2022-12-11T07:42:08.292Z,9.97
2022-12-11T07:48:10.780Z,14.20
2022-12-11T07:54:17.211Z,9.00
2022-12-11T08:00:19.653Z,10.13
2022-12-11T08:06:29.566Z,14.40
2022-12-11T08:12:32.596Z,17.67
2022-12-11T08:18:39.267Z,13.63
2022-12-11T08:24:41.573Z,16.27
2022-12-11T08:30:54.063Z,11.40
2022-12-11T08:37:04.494Z,10.67
2022-12-11T08:43:12.986Z,9.20
2022-12-11T08:49:20.537Z,13.17
2022-12-11T08:55:30.004Z,11.33
2022-12-11T09:01:37.482Z,12.27
2022-12-11T09:07:39.968Z,12.67
2022-12-11T09:13:49.288Z,11.33
2022-12-11T09:19:51.916Z,13.07
2022-12-11T09:25:58.349Z,11.90
2022-12-11T09:32:00.842Z,11.97
2022-12-11T09:38:09.368Z,14.13
2022-12-11T09:44:39.628Z,17.37
2022-12-11T09:50:49.532Z,22.67
2022-12-11T09:57:20.586Z,13.47
2022-12-11T10:03:50.505Z,13.43
2022-12-11T10:09:58.990Z,14.90
2022-12-11T10:16:10.589Z,13.83
2022-12-11T10:22:28.012Z,11.03
2022-12-11T10:28:30.474Z,22.10
2022-12-11T10:34:49.775Z,9.40
2022-12-11T10:41:00.567Z,18.63
2022-12-11T10:47:08.043Z,18.20
2022-12-11T10:53:21.544Z,17.63
2022-12-11T10:59:31.039Z,10.97
2022-12-11T11:05:37.527Z,13.27
2022-12-11T11:11:40.034Z,27.10
2022-12-11T11:17:59.555Z,16.13
2022-12-11T11:24:04.163Z,14.43
2022-12-11T11:30:41.569Z,19.67
2022-12-11T11:36:44.008Z,20.67
2022-12-11T11:43:00.934Z,12.93
2022-12-11T11:49:25.949Z,15.77
2022-12-11T11:55:57.650Z,15.57
2022-12-11T12:02:00.125Z,13.63
2022-12-11T12:08:16.950Z,25.23
2022-12-11T12:21:01.918Z,18.07
2022-12-11T12:27:51.446Z,37.83
2022-12-11T12:34:05.644Z,22.83
2022-12-11T12:40:32.423Z,28.73
2022-12-11T12:46:46.353Z,34.43
2022-12-11T12:53:00.700Z,31.70
2022-12-11T12:59:32.021Z,31.77
2022-12-11T13:05:37.883Z,26.17
2022-12-11T13:11:40.903Z,22.37
2022-12-11T13:17:43.364Z,127.50
2022-12-11T13:23:49.860Z,38.43
2022-12-11T13:30:20.414Z,23.20
2022-12-11T13:36:36.962Z,23.80
2022-12-11T13:43:08.511Z,23.97
2022-12-11T13:49:52.630Z,18.83
2022-12-11T13:56:18.713Z,18.23
2022-12-11T14:02:34.257Z,22.57
2022-12-11T14:08:57.132Z,17.73
2022-12-11T14:15:05.306Z,23.40
2022-12-11T14:21:27.437Z,14.13
2022-12-11T14:27:34.373Z,14.63
2022-12-11T14:33:44.839Z,14.50
2022-12-11T14:39:54.615Z,14.90
2022-12-11T14:46:19.557Z,12.10
2022-12-11T14:52:42.469Z,12.37
2022-12-11T14:59:09.004Z,12.40
2022-12-11T15:05:18.358Z,11.40
2022-12-11T15:11:37.037Z,10.33
2022-12-11T15:17:48.356Z,12.10
2022-12-11T15:24:00.050Z,8.53
2022-12-11T15:30:16.810Z,11.23
2022-12-11T15:36:41.077Z,7.60
2022-12-11T15:42:46.627Z,11.83
2022-12-11T15:48:52.058Z,12.33
2022-12-11T15:54:54.534Z,16.30
2022-12-11T16:01:04.519Z,11.63
2022-12-11T16:07:25.544Z,16.20
2022-12-11T16:13:33.047Z,9.77
2022-12-11T16:19:43.851Z,9.47
2022-12-11T16:25:56.009Z,9.07
2022-12-11T16:32:12.586Z,11.47
2022-12-11T16:38:23.123Z,8.27
2022-12-11T16:44:50.223Z,9.07
2022-12-11T16:51:02.197Z,7.60
2022-12-11T16:57:04.585Z,9.93
2022-12-11T17:03:14.079Z,6.00
2022-12-11T17:09:16.504Z,6.03
2022-12-11T17:15:28.071Z,12.63
2022-12-11T17:21:48.526Z,8.63
2022-12-11T17:28:06.181Z,7.43
2022-12-11T17:34:16.113Z,7.67
2022-12-11T17:40:26.274Z,5.73
2022-12-11T17:46:48.199Z,7.33
2022-12-11T17:52:54.983Z,6.47
2022-12-11T17:59:00.560Z,7.03
2022-12-11T18:05:06.032Z,5.67
2022-12-11T18:11:40.014Z,5.60
2022-12-11T18:17:45.048Z,7.10
2022-12-11T18:23:48.509Z,9.67
2022-12-11T18:29:52.024Z,8.83
2022-12-11T18:36:01.468Z,6.37
2022-12-11T18:48:28.792Z,7.67
2022-12-11T18:54:34.043Z,9.67
2022-12-11T19:00:40.829Z,8.57
2022-12-11T19:06:43.993Z,9.20
2022-12-11T19:12:46.447Z,8.90
2022-12-11T19:19:18.699Z,12.17
2022-12-11T19:25:23.976Z,9.67
2022-12-11T19:31:31.163Z,8.83
2022-12-11T19:37:47.037Z,11.53
2022-12-11T19:44:41.128Z,14.17
2022-12-11T19:57:14.328Z,13.13
2022-12-11T20:10:46.897Z,13.10
2022-12-11T20:24:13.972Z,13.17
2022-12-11T20:30:31.448Z,13.80
2022-12-11T20:36:56.793Z,13.80
2022-12-11T20:42:59.257Z,11.77
2022-12-11T20:49:06.201Z,12.87
2022-12-11T20:55:11.518Z,14.63
2022-12-11T21:01:21.199Z,15.03
2022-12-11T21:07:25.659Z,16.50
2022-12-11T21:13:39.771Z,14.47
2022-12-11T21:19:43.617Z,18.30
2022-12-11T21:25:45.625Z,17.57
2022-12-11T21:31:49.428Z,15.17
2022-12-11T21:38:01.322Z,13.87
2022-12-11T21:50:46.677Z,15.50
2022-12-11T21:56:50.626Z,17.53
2022-12-11T22:02:59.982Z,15.47
2022-12-11T22:09:07.788Z,15.03
2022-12-11T22:15:14.679Z,17.97
2022-12-11T22:21:17.992Z,16.20
2022-12-11T22:27:23.617Z,19.60
2022-12-11T22:33:26.949Z,14.73
2022-12-11T22:39:31.282Z,15.13
2022-12-11T22:45:33.911Z,14.80
2022-12-11T22:51:41.129Z,14.27
2022-12-11T22:57:45.788Z,20.50
2022-12-11T23:03:49.332Z,17.60
2022-12-11T23:09:52.723Z,21.23
2022-12-11T23:15:55.193Z,19.33
2022-12-11T23:22:01.321Z,21.03
2022-12-11T23:28:15.883Z,22.97
2022-12-11T23:34:18.623Z,17.87
2022-12-11T23:40:21.105Z,22.53
2022-12-11T23:46:25.720Z,18.13
2022-12-11T23:52:28.049Z,23.40
2022-12-11T23:58:30.468Z,20.70
